Time;durP1;ratioP1;P1;durP2;ratioP2;P2;SDS_P1;SDS_P2;PMS_P1;PMS_P2;Temp;Humidity;BMP_temperature;BMP_pressure;BME280_temperature;BME280_humidity;BME280_pressure;Samples;Min_cycle;Max_cycle;Signal;HPM_P1;HPM_P2
2024/04/02 00:00:44;;;;;;;2.83;1.40;;;;;;;12.62;63.98;98361.09;5093342;28;20032;-46
2024/04/02 00:03:12;;;;;;;4.63;1.40;;;;;;;12.70;64.31;98366.06;5093802;28;20390;-46
2024/04/02 00:05:39;;;;;;;3.72;1.85;;;;;;;12.65;64.54;98365.13;5093454;28;20452;-46
2024/04/02 00:08:06;;;;;;;5.32;4.82;;;;;;;12.50;64.86;98363.66;5093397;28;20027;-46
2024/04/02 00:10:35;;;;;;;7.25;1.77;;;;;;;12.45;65.75;98363.50;5092029;28;20028;-46
2024/04/02 00:13:01;;;;;;;5.75;1.80;;;;;;;12.34;64.31;98369.53;5093212;28;20093;-46
2024/04/02 00:15:27;;;;;;;2.28;0.88;;;;;;;12.24;63.86;98371.88;5092944;28;20398;-46
2024/04/02 00:17:53;;;;;;;3.40;1.50;;;;;;;12.28;64.35;98365.16;5092004;28;20028;-47
2024/04/02 00:20:19;;;;;;;5.07;1.27;;;;;;;12.29;64.67;98372.00;5091774;28;20566;-47
2024/04/02 00:22:45;;;;;;;3.80;1.00;;;;;;;12.27;65.14;98371.41;5093071;28;20440;-46
2024/04/02 00:25:11;;;;;;;1.35;1.00;;;;;;;12.21;64.59;98373.09;5091791;28;20031;-46
2024/04/02 00:27:37;;;;;;;2.25;0.85;;;;;;;12.21;63.53;98375.72;5093081;28;20035;-46
2024/04/02 00:30:04;;;;;;;1.85;0.93;;;;;;;12.21;63.17;98372.28;5092973;28;20043;-46
2024/04/02 00:32:30;;;;;;;2.33;0.88;;;;;;;12.19;63.28;98370.69;5092903;28;20085;-46
2024/04/02 00:34:56;;;;;;;3.30;1.30;;;;;;;12.21;61.93;98374.91;5092823;28;20020;-46
2024/04/02 00:37:22;;;;;;;3.20;1.27;;;;;;;12.23;61.40;98371.03;5091488;28;20130;-46
2024/04/02 00:39:48;;;;;;;0.93;0.68;;;;;;;12.26;60.14;98372.44;5091402;28;20497;-46
2024/04/02 00:42:14;;;;;;;3.22;1.10;;;;;;;12.27;60.16;98374.84;5091256;28;20055;-47
2024/04/02 00:44:39;;;;;;;1.15;0.70;;;;;;;12.16;59.80;98381.66;5092643;28;20028;-46
2024/04/02 00:47:07;;;;;;;3.90;0.70;;;;;;;12.11;58.87;98383.31;5092691;28;20020;-46
2024/04/02 00:49:34;;;;;;;4.00;1.05;;;;;;;12.12;59.40;98387.56;5091311;28;20083;-47
2024/04/02 00:52:02;;;;;;;2.30;0.77;;;;;;;12.11;59.27;98388.56;5092537;28;20031;-46
2024/04/02 00:54:29;;;;;;;4.90;1.48;;;;;;;12.18;60.21;98389.31;5091219;28;20027;-46
2024/04/02 00:56:55;;;;;;;4.45;0.98;;;;;;;12.20;60.44;98389.91;5091194;28;20055;-46
2024/04/02 00:59:22;;;;;;;2.47;1.45;;;;;;;12.16;60.78;98386.91;5091073;28;20512;-46
2024/04/02 01:01:49;;;;;;;2.03;1.00;;;;;;;12.23;61.33;98393.91;5091067;28;20028;-46
2024/04/02 01:04:15;;;;;;;5.85;1.35;;;;;;;12.30;62.12;98399.94;5092617;28;20028;-46
2024/04/02 01:06:41;;;;;;;1.55;0.63;;;;;;;12.33;59.50;98394.22;5092383;28;20466;-46
2024/04/02 01:09:07;;;;;;;3.10;1.00;;;;;;;12.25;59.38;98411.09;5092278;28;20107;-46
2024/04/02 01:11:35;;;;;;;2.60;1.42;;;;;;;12.24;60.88;98412.13;5090909;28;20090;-46
2024/04/02 01:14:01;;;;;;;9.45;2.72;;;;;;;12.17;62.73;98412.22;5092203;28;20032;-46
2024/04/02 01:16:28;;;;;;;5.88;3.67;;;;;;;12.16;64.88;98417.69;5091075;28;20038;-46
2024/04/02 01:18:54;;;;;;;20.92;12.60;;;;;;;12.26;66.68;98417.97;5090785;28;20237;-46
2024/04/02 01:21:20;;;;;;;6.22;5.00;;;;;;;12.16;67.15;98426.38;5090644;28;20473;-46
2024/04/02 01:23:48;;;;;;;27.67;23.02;;;;;;;12.06;67.29;98433.94;5091103;28;20443;-46
2024/04/02 01:26:14;;;;;;;6.18;3.67;;;;;;;11.94;67.46;98433.84;5073235;28;20097;-46
2024/04/02 01:28:40;;;;;;;4.00;2.75;;;;;;;11.78;67.67;98435.16;5090695;28;20448;-46
2024/04/02 01:31:06;;;;;;;10.23;6.43;;;;;;;11.64;68.13;98443.34;5090720;28;20456;-46
2024/04/02 01:33:31;;;;;;;12.32;11.27;;;;;;;11.51;68.66;98444.22;5092006;28;20134;-46
2024/04/02 01:35:57;;;;;;;35.60;32.22;;;;;;;11.39;69.16;98449.38;5090540;28;20032;-46
2024/04/02 01:38:23;;;;;;;9.00;5.88;;;;;;;11.33;70.17;98455.47;5091924;28;20038;-46
2024/04/02 01:40:49;;;;;;;3.80;3.47;;;;;;;11.22;69.96;98451.69;5073799;28;20505;-46
2024/04/02 01:43:15;;;;;;;7.55;4.00;;;;;;;11.20;71.00;98437.94;5090329;28;20094;-46
2024/04/02 01:45:40;;;;;;;3.63;2.70;;;;;;;11.25;71.26;98446.03;5090510;28;20050;-46
2024/04/02 01:48:06;;;;;;;3.55;2.00;;;;;;;11.24;71.06;98452.28;5091876;28;20486;-46
2024/04/02 01:50:32;;;;;;;6.47;2.20;;;;;;;11.24;71.16;98470.66;5090473;28;20062;-46
2024/04/02 01:52:58;;;;;;;4.82;2.00;;;;;;;11.26;71.75;98460.75;5091803;28;20484;-46
2024/04/02 01:55:25;;;;;;;6.28;1.85;;;;;;;11.31;72.01;98460.13;5091726;28;20098;-46
2024/04/02 01:57:51;;;;;;;2.45;1.40;;;;;;;11.34;72.21;98457.06;5091618;28;20031;-46
2024/04/02 02:00:18;;;;;;;3.05;1.65;;;;;;;11.31;72.16;98458.31;5091622;28;20104;-46
2024/04/02 02:02:44;;;;;;;3.33;2.25;;;;;;;11.32;72.32;98461.72;5091924;28;20455;-46
2024/04/02 02:05:09;;;;;;;3.97;1.73;;;;;;;11.15;71.98;98461.44;5091665;28;20024;-48
2024/04/02 02:07:35;;;;;;;4.80;1.70;;;;;;;11.18;72.77;98467.03;5091642;28;20048;-48
2024/04/02 02:10:01;;;;;;;4.47;1.90;;;;;;;11.18;72.57;98455.75;5091618;28;20091;-48
2024/04/02 02:12:26;;;;;;;4.80;2.47;;;;;;;11.19;72.67;98450.28;5090283;28;20107;-48
2024/04/02 02:14:52;;;;;;;5.85;2.00;;;;;;;11.24;72.69;98452.28;5091607;28;20020;-48
2024/04/02 02:17:18;;;;;;;4.07;2.00;;;;;;;11.33;72.44;98455.47;5091534;28;20504;-49
2024/04/02 02:19:44;;;;;;;4.30;1.45;;;;;;;11.36;72.32;98460.31;5091432;28;20107;-48
2024/04/02 02:22:10;;;;;;;2.63;1.58;;;;;;;11.38;70.46;98461.69;5090091;28;20024;-48
2024/04/02 02:24:35;;;;;;;5.75;1.80;;;;;;;11.35;70.61;98467.38;5090113;28;20403;-48
2024/04/02 02:27:01;;;;;;;11.95;1.50;;;;;;;11.28;70.93;98468.44;5091498;28;20020;-49
2024/04/02 02:29:26;;;;;;;2.33;1.30;;;;;;;11.24;71.28;98475.13;5091460;28;20027;-49
2024/04/02 02:31:52;;;;;;;5.13;1.77;;;;;;;11.31;71.14;98481.97;5090339;28;20031;-49
2024/04/02 02:34:18;;;;;;;2.83;1.38;;;;;;;11.42;70.97;98472.59;5091452;28;20452;-48
2024/04/02 02:36:44;;;;;;;2.28;1.73;;;;;;;11.50;70.93;98479.44;5090806;28;20024;-48
2024/04/02 02:39:13;;;;;;;3.00;1.42;;;;;;;11.61;70.50;98476.13;5095342;28;20031;-48
2024/04/02 02:41:40;;;;;;;4.00;1.20;;;;;;;11.65;70.17;98474.69;5094567;28;20074;-48
2024/04/02 02:44:06;;;;;;;3.63;2.20;;;;;;;11.75;70.38;98476.81;5093721;28;20486;-48
2024/04/02 02:46:32;;;;;;;4.40;2.30;;;;;;;11.82;70.15;98482.84;5093973;28;20031;-48
2024/04/02 02:48:59;;;;;;;4.25;2.08;;;;;;;11.86;69.81;98468.25;5094909;28;20028;-48
2024/04/02 02:51:26;;;;;;;9.48;2.17;;;;;;;11.87;70.08;98475.16;5093560;28;20103;-49
2024/04/02 02:53:52;;;;;;;6.55;1.45;;;;;;;11.97;69.41;98482.56;5094816;28;20023;-48
2024/04/02 02:56:19;;;;;;;10.73;2.10;;;;;;;11.94;68.78;98481.19;5093468;28;20024;-46
2024/04/02 02:58:45;;;;;;;3.33;1.20;;;;;;;11.96;68.53;98479.13;5094733;28;20034;-47
2024/04/02 03:01:11;;;;;;;3.67;1.40;;;;;;;11.93;67.61;98492.72;5094717;28;20047;-47
2024/04/02 03:03:37;;;;;;;9.25;1.80;;;;;;;11.83;67.64;98502.06;5094719;28;20482;-46
2024/04/02 03:06:02;;;;;;;7.47;1.67;;;;;;;11.90;68.28;98510.75;5093296;28;20028;-46
2024/04/02 03:08:29;;;;;;;3.83;1.27;;;;;;;12.00;67.56;98508.44;5093402;28;20406;-46
2024/04/02 03:10:54;;;;;;;5.72;1.45;;;;;;;12.13;66.08;98521.53;5093269;28;20121;-46
2024/04/02 03:13:20;;;;;;;7.88;1.42;;;;;;;12.10;65.19;98513.25;5093133;28;20032;-47
2024/04/02 03:15:46;;;;;;;5.25;0.80;;;;;;;12.00;64.13;98505.81;5094669;28;20028;-46
2024/04/02 03:18:11;;;;;;;2.08;0.90;;;;;;;11.90;62.91;98503.66;5094703;28;20486;-46
2024/04/02 03:20:40;;;;;;;1.83;0.80;;;;;;;11.78;62.28;98508.75;5094235;28;20375;-48
2024/04/02 03:23:06;;;;;;;6.63;1.35;;;;;;;11.75;63.50;98509.19;5094276;28;20413;-48
2024/04/02 03:25:31;;;;;;;2.70;1.02;;;;;;;11.94;62.36;98501.41;5092910;28;20070;-48
2024/04/02 03:27:57;;;;;;;6.28;0.80;;;;;;;12.11;61.33;98506.94;5092852;28;20028;-49
2024/04/02 03:30:23;;;;;;;2.03;0.98;;;;;;;12.16;61.12;98513.19;5094150;28;20099;-46
2024/04/02 03:32:48;;;;;;;2.58;0.85;;;;;;;12.19;61.13;98512.75;5094111;28;20058;-46
2024/04/02 03:35:14;;;;;;;2.22;1.67;;;;;;;12.27;59.92;98510.88;5092742;28;20028;-46
2024/04/02 03:37:40;;;;;;;2.30;0.90;;;;;;;12.28;60.22;98510.66;5092703;28;20028;-46
2024/04/02 03:40:06;;;;;;;4.25;0.82;;;;;;;12.31;59.96;98506.78;5093877;28;20024;-47
2024/04/02 03:42:31;;;;;;;3.38;0.95;;;;;;;12.32;59.53;98505.78;5092307;28;20125;-46
2024/04/02 03:44:57;;;;;;;2.72;0.80;;;;;;;12.31;59.76;98498.88;5093866;28;20565;-46
2024/04/02 03:47:23;;;;;;;3.08;0.88;;;;;;;12.34;59.19;98506.38;5092507;28;20035;-46
2024/04/02 03:49:48;;;;;;;4.80;1.05;;;;;;;12.39;59.55;98506.50;5093071;28;20031;-46
2024/04/02 03:52:14;;;;;;;3.45;1.13;;;;;;;12.44;59.67;98495.34;5093705;28;20032;-46
2024/04/02 03:54:40;;;;;;;10.13;1.45;;;;;;;12.50;58.99;98502.38;5093657;28;20070;-46
2024/04/02 03:57:05;;;;;;;2.58;0.93;;;;;;;12.53;59.07;98500.09;5093613;28;20047;-46
2024/04/02 03:59:34;;;;;;;3.75;1.40;;;;;;;12.60;58.90;98500.06;5092172;28;20097;-46
2024/04/02 04:02:00;;;;;;;4.18;1.60;;;;;;;12.67;58.48;98502.59;5093452;28;20107;-46
2024/04/02 04:04:26;;;;;;;2.85;0.80;;;;;;;12.73;57.66;98510.44;5093678;28;20103;-46
2024/04/02 04:06:52;;;;;;;4.32;1.25;;;;;;;12.70;57.45;98510.09;5092170;28;20097;-46
2024/04/02 04:09:17;;;;;;;3.88;1.00;;;;;;;12.66;57.80;98506.28;5092139;28;20028;-46
2024/04/02 04:11:43;;;;;;;5.45;1.77;;;;;;;12.58;58.81;98508.16;5092027;28;20024;-46
2024/04/02 04:14:09;;;;;;;6.15;1.90;;;;;;;12.58;60.35;98510.78;5092009;28;20020;-46
2024/04/02 04:16:34;;;;;;;4.53;1.20;;;;;;;12.53;61.01;98518.53;5093247;28;20111;-46
2024/04/02 04:19:00;;;;;;;3.45;2.20;;;;;;;12.46;61.15;98517.00;5093236;28;20060;-46
2024/04/02 04:21:25;;;;;;;5.93;1.98;;;;;;;12.30;61.51;98523.59;5091751;28;20028;-46
2024/04/02 04:23:51;;;;;;;4.57;1.17;;;;;;;12.13;61.63;98521.53;5093099;28;20027;-47
2024/04/02 04:26:17;;;;;;;4.47;1.60;;;;;;;12.07;62.18;98522.34;5091753;28;20031;-46
2024/04/02 04:28:42;;;;;;;3.30;1.13;;;;;;;12.13;61.98;98525.94;5093073;28;20024;-46
2024/04/02 04:31:09;;;;;;;3.97;1.40;;;;;;;12.01;61.76;98536.34;5091637;28;20058;-47
2024/04/02 04:33:35;;;;;;;3.22;1.27;;;;;;;11.96;61.21;98537.00;5091634;28;20028;-46
2024/04/02 04:36:00;;;;;;;2.35;1.23;;;;;;;11.94;61.36;98540.88;5091606;28;20030;-46
2024/04/02 04:38:29;;;;;;;3.38;1.15;;;;;;;11.92;61.23;98541.06;5091496;28;20020;-46
2024/04/02 04:40:55;;;;;;;9.52;1.58;;;;;;;11.92;61.73;98556.06;5091439;28;20121;-46
2024/04/02 04:43:21;;;;;;;4.80;1.20;;;;;;;12.03;62.30;98554.56;5091378;28;20055;-46
2024/04/02 04:45:58;;;;;;;5.57;1.10;;;;;;;12.03;62.24;98559.81;5092715;28;20108;-46
2024/04/02 04:48:24;;;;;;;4.25;1.38;;;;;;;12.01;62.27;98567.91;5092648;28;20051;-46
2024/04/02 04:50:57;;;;;;;6.82;1.67;;;;;;;12.07;61.51;98577.59;5092726;28;20485;-46
2024/04/02 04:53:23;;;;;;;8.00;1.73;;;;;;;12.18;61.87;98584.81;5092575;28;20019;-46
2024/04/02 04:55:49;;;;;;;2.20;1.05;;;;;;;12.34;61.65;98575.59;5092524;28;20561;-46
2024/04/02 04:58:15;;;;;;;3.53;1.17;;;;;;;12.45;60.69;98587.22;5092486;28;20035;-46
2024/04/02 05:00:42;;;;;;;2.72;0.90;;;;;;;12.40;59.95;98594.97;5090122;28;20024;-46
2024/04/02 05:03:08;;;;;;;6.55;1.30;;;;;;;12.27;59.24;98589.81;5091110;28;20034;-46
2024/04/02 05:05:34;;;;;;;3.33;1.10;;;;;;;12.23;57.35;98592.06;5092304;28;20090;-46
2024/04/02 05:08:25;;;;;;;8.85;7.43;;;;;;;12.12;57.43;98596.19;5091031;28;20576;-46
2024/04/02 05:10:52;;;;;;;8.35;1.92;;;;;;;12.16;57.63;98604.47;5081668;28;20406;-46
2024/04/02 05:13:19;;;;;;;194.15;174.30;;;;;;;12.22;57.56;98608.06;5074094;28;20028;-46
2024/04/02 05:15:45;;;;;;;35.65;30.77;;;;;;;12.20;57.26;98597.75;5092114;28;20630;-47
2024/04/02 05:18:11;;;;;;;9.48;4.50;;;;;;;12.31;57.01;98601.50;5090927;28;20024;-47
2024/04/02 05:20:37;;;;;;;7.00;2.13;;;;;;;12.30;55.51;98597.28;5092026;28;20393;-46
2024/04/02 05:23:04;;;;;;;10.38;1.98;;;;;;;12.02;56.21;98618.72;5090789;28;20024;-46
2024/04/02 05:25:31;;;;;;;13.77;2.28;;;;;;;11.85;56.50;98610.47;5090734;28;20059;-46
2024/04/02 05:27:56;;;;;;;41.38;37.60;;;;;;;11.76;57.09;98612.53;5090714;28;20024;-46
2024/04/02 05:30:22;;;;;;;11.63;8.63;;;;;;;11.68;56.52;98610.94;5090660;28;20024;-46
2024/04/02 05:32:48;;;;;;;18.85;3.28;;;;;;;11.69;57.12;98612.56;5090739;28;20028;-46
2024/04/02 05:35:14;;;;;;;10.93;2.15;;;;;;;11.79;57.18;98614.72;5090602;28;20028;-46
2024/04/02 05:37:40;;;;;;;9.32;1.95;;;;;;;11.80;56.60;98617.16;5092158;28;20119;-46
2024/04/02 05:40:07;;;;;;;4.05;1.20;;;;;;;11.82;56.20;98611.69;5091865;28;20529;-46
2024/04/02 05:42:33;;;;;;;3.22;1.38;;;;;;;11.80;56.49;98616.34;5095637;28;20055;-46
2024/04/02 05:45:00;;;;;;;8.35;1.58;;;;;;;11.85;56.09;98606.03;5090585;28;20541;-46
2024/04/02 05:47:26;;;;;;;6.07;1.02;;;;;;;11.80;55.65;98622.41;5092093;28;20486;-46
2024/04/02 05:49:52;;;;;;;2.40;0.93;;;;;;;11.75;55.04;98627.50;5091847;28;20032;-46
2024/04/02 05:52:18;;;;;;;2.35;1.10;;;;;;;11.84;55.94;98627.28;5091761;28;20035;-46
2024/04/02 05:54:44;;;;;;;1.95;1.17;;;;;;;11.98;55.18;98634.91;5092003;28;20036;-46
2024/04/02 05:57:10;;;;;;;2.67;1.08;;;;;;;12.43;55.69;98643.75;5090478;28;20111;-46
2024/04/02 05:59:37;;;;;;;3.90;1.23;;;;;;;13.62;53.12;98644.50;5091651;28;20034;-46
2024/04/02 06:02:03;;;;;;;11.00;1.73;;;;;;;14.28;51.70;98642.81;5090398;28;20032;-46
2024/04/02 06:04:29;;;;;;;11.27;1.50;;;;;;;15.38;49.39;98657.31;5090373;28;20028;-46
2024/04/02 06:06:54;;;;;;;5.32;1.50;;;;;;;16.58;47.13;98654.81;5091629;28;20039;-46
2024/04/02 06:09:21;;;;;;;8.13;2.00;;;;;;;17.62;45.14;98654.47;5091543;28;20569;-46
2024/04/02 06:11:47;;;;;;;10.23;2.17;;;;;;;18.50;43.04;98652.50;5092410;28;20112;-46
2024/04/02 06:14:12;;;;;;;6.78;1.05;;;;;;;19.00;40.68;98652.38;5095666;28;20047;-46
2024/04/02 06:16:38;;;;;;;4.80;1.60;;;;;;;19.07;40.06;98661.72;5095547;28;20522;-46
2024/04/02 06:19:04;;;;;;;3.90;1.02;;;;;;;19.26;39.42;98663.97;5094298;28;20484;-46
2024/04/02 06:21:30;;;;;;;4.70;1.33;;;;;;;19.43;39.30;98669.09;5094067;28;20028;-47
2024/04/02 06:23:56;;;;;;;4.75;0.98;;;;;;;19.59;39.30;98675.31;5095438;28;20020;-47
2024/04/02 06:26:21;;;;;;;3.95;1.20;;;;;;;19.73;38.61;98679.91;5095390;28;20099;-47
2024/04/02 06:28:47;;;;;;;6.25;1.35;;;;;;;19.49;38.78;98681.38;5095389;28;20028;-47
2024/04/02 06:31:13;;;;;;;3.80;0.90;;;;;;;19.80;38.12;98669.03;5093997;28;20024;-47
2024/04/02 06:33:39;;;;;;;2.35;0.90;;;;;;;19.69;37.27;98664.69;5095228;28;20116;-47
2024/04/02 06:36:05;;;;;;;6.13;2.33;;;;;;;18.95;37.95;98669.91;5093891;28;20027;-47
2024/04/02 06:38:30;;;;;;;5.78;3.28;;;;;;;18.76;38.92;98672.09;5095139;28;20406;-46
2024/04/02 06:40:56;;;;;;;1.20;0.93;;;;;;;18.40;38.98;98671.00;5095025;28;20016;-46
2024/04/02 06:43:22;;;;;;;5.93;1.50;;;;;;;17.84;40.05;98686.34;5094844;28;20052;-47
2024/04/02 06:45:55;;;;;;;1.75;0.95;;;;;;;17.19;41.47;98688.66;5094962;28;20020;-47
2024/04/02 06:48:22;;;;;;;3.92;0.90;;;;;;;17.07;41.88;98691.41;5093640;28;20079;-47
2024/04/02 06:51:08;;;;;;;7.25;1.02;;;;;;;16.84;42.56;98695.03;5094928;28;20485;-47
2024/04/02 06:53:34;;;;;;;3.25;1.10;;;;;;;16.78;43.25;98703.88;5094726;28;20040;-47
2024/04/02 06:56:00;;;;;;;3.97;0.95;;;;;;;16.69;43.74;98711.44;5093494;28;20028;-47
2024/04/02 06:58:26;;;;;;;2.58;1.30;;;;;;;16.45;43.79;98699.38;5094690;28;20024;-46
2024/04/02 07:00:53;;;;;;;8.80;2.60;;;;;;;17.46;43.47;98696.72;5094701;28;20032;-47
2024/04/02 07:03:21;;;;;;;6.15;1.20;;;;;;;19.93;38.99;98697.03;5093388;28;20020;-47
2024/04/02 07:05:48;;;;;;;8.80;1.63;;;;;;;22.08;35.72;98693.47;5094570;28;20016;-44
2024/04/02 07:08:14;;;;;;;7.60;1.67;;;;;;;23.50;32.61;98695.28;5093260;28;20032;-45
2024/04/02 07:10:42;;;;;;;5.95;1.70;;;;;;;24.48;31.31;98702.91;5094785;28;20024;-45
2024/04/02 07:13:09;;;;;;;3.13;1.58;;;;;;;25.50;29.54;98706.59;5093257;28;20044;-45
2024/04/02 07:15:35;;;;;;;11.68;1.70;;;;;;;26.32;27.67;98709.50;5093119;28;20028;-44
2024/04/02 07:18:02;;;;;;;5.80;1.10;;;;;;;27.36;26.33;98703.25;5093110;28;20032;-45
2024/04/02 07:20:28;;;;;;;4.32;1.27;;;;;;;28.19;25.21;98706.03;5092944;28;20111;-45
2024/04/02 07:22:53;;;;;;;9.88;1.50;;;;;;;27.61;25.62;98697.16;5092466;28;20126;-44
2024/04/02 07:25:19;;;;;;;3.78;1.05;;;;;;;27.21;25.19;98701.72;5093728;28;20036;-44
2024/04/02 07:27:46;;;;;;;7.45;1.50;;;;;;;26.05;26.22;98699.59;5094263;28;20024;-45
2024/04/02 07:30:12;;;;;;;9.85;1.77;;;;;;;25.29;26.86;98705.38;5094095;28;20490;-45
2024/04/02 07:32:38;;;;;;;7.07;1.40;;;;;;;26.05;26.69;98705.78;5094115;28;20020;-44
2024/04/02 07:35:04;;;;;;;5.32;1.10;;;;;;;26.78;25.85;98705.75;5094091;28;20039;-45
2024/04/02 07:37:30;;;;;;;5.03;1.10;;;;;;;27.59;24.07;98707.47;5092742;28;20490;-45
2024/04/02 07:39:55;;;;;;;4.85;1.15;;;;;;;28.46;23.60;98706.81;5092630;28;20058;-44
2024/04/02 07:42:21;;;;;;;13.52;3.00;;;;;;;29.11;23.12;98705.03;5093680;28;20076;-45
2024/04/02 07:44:47;;;;;;;4.72;1.30;;;;;;;29.68;22.40;98706.56;5092593;28;20039;-45
2024/04/02 07:47:12;;;;;;;17.02;2.17;;;;;;;30.04;22.08;98706.03;5093837;28;20032;-45
2024/04/02 07:49:38;;;;;;;3.63;1.23;;;;;;;30.39;21.65;98708.50;5093799;28;20111;-45
2024/04/02 07:52:04;;;;;;;14.27;2.80;;;;;;;30.88;20.79;98710.63;5092444;28;20036;-45
2024/04/02 07:54:30;;;;;;;11.25;1.50;;;;;;;30.50;20.78;98717.00;5092411;28;20030;-45
2024/04/02 07:56:56;;;;;;;12.75;1.70;;;;;;;30.64;20.59;98705.88;5093671;28;20039;-45
2024/04/02 07:59:22;;;;;;;9.38;1.50;;;;;;;30.14;19.33;98710.25;5092298;28;20085;-45
2024/04/02 08:01:48;;;;;;;5.07;1.20;;;;;;;29.67;19.96;98726.59;5092185;28;20030;-45
2024/04/02 08:04:14;;;;;;;2.75;1.00;;;;;;;29.91;19.62;98734.13;5093514;28;20027;-45
2024/04/02 08:06:42;;;;;;;6.57;1.33;;;;;;;30.36;19.13;98736.22;5092176;28;20028;-45
2024/04/02 08:09:08;;;;;;;7.53;1.23;;;;;;;30.58;18.89;98735.09;5093357;28;20077;-45
2024/04/02 08:11:34;;;;;;;3.58;1.02;;;;;;;30.35;18.79;98740.06;5092068;28;20028;-45
2024/04/02 08:14:00;;;;;;;6.57;1.42;;;;;;;29.80;18.94;98741.84;5093391;28;20059;-45
2024/04/02 08:16:26;;;;;;;4.50;1.20;;;;;;;29.30;19.18;98750.59;5093227;28;20521;-45
2024/04/02 08:18:52;;;;;;;3.03;0.63;;;;;;;28.90;18.95;98744.63;5091950;28;20406;-45
2024/04/02 08:21:17;;;;;;;5.57;1.10;;;;;;;28.00;19.36;98757.56;5093026;28;20017;-45
2024/04/02 08:23:43;;;;;;;8.68;2.10;;;;;;;25.93;22.10;98759.28;5091805;28;20028;-45
2024/04/02 08:26:09;;;;;;;7.38;1.45;;;;;;;26.31;22.22;98759.03;5092020;28;20428;-44
2024/04/02 08:28:35;;;;;;;5.57;1.33;;;;;;;27.93;21.02;98753.75;5093127;28;20095;-45
2024/04/02 08:31:01;;;;;;;3.72;1.15;;;;;;;28.00;20.33;98749.47;5091675;28;20047;-45
2024/04/02 08:33:27;;;;;;;5.75;1.10;;;;;;;27.38;20.44;98754.94;5092936;28;20028;-45
2024/04/02 08:35:53;;;;;;;6.75;1.10;;;;;;;28.15;20.13;98750.13;5092731;28;20042;-45
2024/04/02 08:38:18;;;;;;;10.85;1.70;;;;;;;29.65;18.90;98759.38;5091523;28;20028;-45
2024/04/02 08:40:51;;;;;;;4.35;0.95;;;;;;;30.86;19.23;98750.78;5092721;28;20081;-45
2024/04/02 08:43:18;;;;;;;7.03;1.15;;;;;;;31.71;17.46;98738.53;5074399;28;20067;-45
2024/04/02 08:45:45;;;;;;;8.13;1.83;;;;;;;31.63;18.19;98750.31;5091438;28;20107;-45
2024/04/02 08:48:11;;;;;;;4.63;3.15;;;;;;;31.62;17.63;98748.72;5091388;28;20026;-45
2024/04/02 08:50:40;;;;;;;6.05;1.95;;;;;;;31.73;17.81;98746.34;5092635;28;20028;-45
2024/04/02 08:53:07;;;;;;;7.85;4.85;;;;;;;32.26;16.74;98752.66;5091576;28;20028;-45
2024/04/02 08:55:34;;;;;;;9.40;2.42;;;;;;;32.11;16.62;98750.66;5091227;28;20161;-45
2024/04/02 08:58:01;;;;;;;3.25;1.67;;;;;;;31.64;16.48;98755.41;5091230;28;20110;-45
2024/04/02 09:00:29;;;;;;;3.92;1.30;;;;;;;30.92;17.04;98759.53;5092413;28;20051;-45
2024/04/02 09:02:55;;;;;;;6.32;1.95;;;;;;;30.78;16.70;98755.16;5092467;28;20028;-45
2024/04/02 09:05:21;;;;;;;7.22;1.20;;;;;;;30.45;17.35;98755.91;5092328;28;20028;-45
2024/04/02 09:07:47;;;;;;;10.18;2.30;;;;;;;29.89;17.80;98758.00;5092411;28;20035;-45
2024/04/02 09:10:12;;;;;;;9.48;2.70;;;;;;;29.59;18.27;98757.97;5092300;28;20424;-46
2024/04/02 09:12:40;;;;;;;2.20;0.63;;;;;;;29.37;17.89;98760.91;5090947;28;20030;-45
2024/04/02 09:15:07;;;;;;;6.35;1.48;;;;;;;29.47;18.31;98758.63;5092184;28;20032;-45
2024/04/02 09:17:33;;;;;;;3.22;1.13;;;;;;;30.34;18.07;98754.72;5092243;28;20027;-45
2024/04/02 09:19:59;;;;;;;7.30;1.55;;;;;;;30.63;17.59;98745.75;5090835;28;20413;-45
2024/04/02 09:22:25;;;;;;;5.30;1.45;;;;;;;29.72;18.16;98749.97;5092130;28;20020;-45
2024/04/02 09:24:50;;;;;;;9.48;3.08;;;;;;;29.95;18.52;98754.00;5091039;28;20031;-45
2024/04/02 09:27:16;;;;;;;5.07;1.95;;;;;;;30.07;17.79;98756.00;5092047;28;20098;-45
2024/04/02 09:29:42;;;;;;;2.78;1.10;;;;;;;30.30;17.78;98756.50;5090794;28;20036;-45
2024/04/02 09:32:08;;;;;;;3.90;1.00;;;;;;;30.84;16.67;98753.81;5090673;28;20039;-45
2024/04/02 09:34:35;;;;;;;6.68;1.10;;;;;;;31.11;16.78;98751.69;5090695;28;20050;-45
2024/04/02 09:37:34;;;;;;;3.13;0.93;;;;;;;30.60;15.95;98748.31;5091981;28;20034;-45
2024/04/02 09:40:03;;;;;;;6.95;1.00;;;;;;;28.40;17.74;98756.69;5090619;28;20038;-45
2024/04/02 09:42:30;;;;;;;7.75;1.83;;;;;;;26.93;19.22;98771.94;5091911;28;20395;-46
2024/04/02 09:44:58;;;;;;;5.32;0.80;;;;;;;25.54;20.13;98771.28;5092247;28;20434;-45
2024/04/02 09:47:25;;;;;;;4.05;0.95;;;;;;;24.70;21.18;98770.22;5094791;28;20036;-45
2024/04/02 09:49:52;;;;;;;4.38;1.90;;;;;;;24.72;21.96;98770.72;5097444;28;20073;-45
2024/04/02 09:52:19;;;;;;;4.97;1.33;;;;;;;25.56;21.92;98766.41;5080434;28;20486;-46
2024/04/02 09:54:46;;;;;;;4.13;1.58;;;;;;;26.34;21.09;98763.81;5098602;28;20084;-45
2024/04/02 09:57:13;;;;;;;2.80;1.20;;;;;;;26.45;20.57;98750.94;5098529;28;20072;-46
2024/04/02 09:59:40;;;;;;;2.55;0.95;;;;;;;28.02;20.05;98747.25;5097264;28;20031;-46
2024/04/02 10:02:16;;;;;;;6.40;2.72;;;;;;;29.32;19.09;98753.78;5097241;28;20048;-46
2024/04/02 10:04:42;;;;;;;47.13;43.17;;;;;;;28.54;19.37;98756.56;5098739;28;20031;-46
2024/04/02 10:07:28;;;;;;;9.13;4.78;;;;;;;27.37;19.68;98746.06;5098421;28;20493;-46
2024/04/02 10:09:58;;;;;;;3.13;1.65;;;;;;;27.38;19.39;98747.63;5097239;28;20068;-46
2024/04/02 10:12:31;;;;;;;3.10;1.60;;;;;;;27.44;19.89;98735.63;5097017;28;20034;-46
2024/04/02 10:14:57;;;;;;;6.88;3.70;;;;;;;28.65;18.99;98738.91;5098673;28;20389;-46
2024/04/02 10:17:24;;;;;;;4.82;2.03;;;;;;;29.40;18.67;98735.91;5098904;28;20036;-46
2024/04/02 10:19:51;;;;;;;32.45;29.58;;;;;;;29.83;18.48;98738.47;5098241;28;20032;-46
2024/04/02 10:22:31;;;;;;;9.70;6.97;;;;;;;30.32;18.27;98735.31;5098765;28;20028;-46
2024/04/02 10:25:15;;;;;;;7.60;5.97;;;;;;;30.67;17.56;98735.03;5098219;28;20035;-46
2024/04/02 10:27:43;;;;;;;4.45;2.63;;;;;;;30.92;17.40;98751.41;5098323;28;20028;-46
2024/04/02 10:30:21;;;;;;;11.52;3.28;;;;;;;31.18;17.32;98754.63;5098163;28;20032;-46
2024/04/02 10:32:48;;;;;;;5.95;1.70;;;;;;;31.28;16.66;98756.13;5097072;28;20023;-46
2024/04/02 10:35:24;;;;;;;7.38;2.05;;;;;;;31.30;16.87;98758.50;5098170;28;20020;-46
2024/04/02 10:37:55;;;;;;;12.02;2.63;;;;;;;31.62;17.15;98763.09;5098214;28;20112;-46
2024/04/02 10:40:21;;;;;;;7.30;1.65;;;;;;;32.02;16.37;98759.72;5098006;28;20024;-46
2024/04/02 10:42:49;;;;;;;4.88;2.08;;;;;;;32.15;16.46;98763.19;5097815;28;20456;-46
2024/04/02 10:45:16;;;;;;;21.17;4.18;;;;;;;30.63;16.98;98766.63;5098044;28;20040;-46
2024/04/02 10:47:49;;;;;;;4.88;1.83;;;;;;;28.40;19.29;98773.69;5098083;28;20030;-46
2024/04/02 10:50:16;;;;;;;4.78;0.98;;;;;;;26.77;19.51;98776.88;5098080;28;20057;-45
2024/04/02 10:52:42;;;;;;;5.05;1.15;;;;;;;26.35;20.53;98776.16;5098030;28;20024;-45
2024/04/02 10:55:09;;;;;;;4.60;1.10;;;;;;;27.28;19.56;98764.06;5097987;28;20020;-45
2024/04/02 10:57:36;;;;;;;4.82;1.90;;;;;;;27.59;19.54;98763.28;5096238;28;20119;-46
2024/04/02 11:00:04;;;;;;;1.60;0.55;;;;;;;28.84;18.36;98752.09;5093513;28;20107;-45
2024/04/02 11:02:31;;;;;;;2.80;1.15;;;;;;;30.59;17.43;98744.03;5093442;28;20112;-46
2024/04/02 11:04:58;;;;;;;3.08;0.85;;;;;;;31.61;16.40;98728.16;5094686;28;20038;-46
2024/04/02 11:07:26;;;;;;;3.15;1.20;;;;;;;31.49;16.22;98750.63;5093356;28;20020;-46
2024/04/02 11:09:53;;;;;;;6.88;1.80;;;;;;;30.23;16.80;98743.47;5094591;28;20578;-46
2024/04/02 11:12:20;;;;;;;2.92;0.55;;;;;;;29.00;17.94;98745.09;5094495;28;20485;-46
2024/04/02 11:14:52;;;;;;;4.03;1.20;;;;;;;28.75;18.56;98749.41;5094536;28;20023;-46
2024/04/02 11:17:18;;;;;;;6.30;1.55;;;;;;;28.95;18.53;98742.53;5093110;28;20031;-46
2024/04/02 11:19:44;;;;;;;6.10;1.00;;;;;;;29.36;18.32;98734.97;5094272;28;20471;-46
2024/04/02 11:25:04;;;;;;;2.47;0.90;;;;;;;28.66;17.86;98729.72;5094577;28;20042;-46
2024/04/02 11:27:31;;;;;;;4.88;1.10;;;;;;;28.49;18.07;98723.19;5094274;28;20035;-46
2024/04/02 11:29:58;;;;;;;2.20;0.88;;;;;;;28.84;17.76;98723.19;5092862;28;20036;-46
2024/04/02 11:32:24;;;;;;;3.92;1.55;;;;;;;29.14;17.06;98723.31;5092904;28;20541;-46